createdAt,value
2018-07-23T00:01:24.841Z,6.97
2018-07-23T00:03:54.580Z,7.70
2018-07-23T00:06:24.745Z,6.97
2018-07-23T00:08:54.562Z,7.50
2018-07-23T00:11:24.190Z,6.80
2018-07-23T00:13:53.888Z,8.07
2018-07-23T00:16:23.661Z,8.23
2018-07-23T00:18:53.352Z,7.70
2018-07-23T00:21:23.240Z,6.50
2018-07-23T00:23:52.878Z,7.47
2018-07-23T00:26:22.713Z,6.60
2018-07-23T00:28:52.496Z,8.10
2018-07-23T00:31:22.226Z,7.30
2018-07-23T00:33:51.886Z,8.20
2018-07-23T00:36:21.619Z,8.13
2018-07-23T00:38:51.397Z,7.40
2018-07-23T00:41:21.045Z,7.00
2018-07-23T00:43:50.745Z,7.27
2018-07-23T00:46:20.907Z,6.93
2018-07-23T00:48:50.674Z,7.13
2018-07-23T00:51:20.475Z,8.87
2018-07-23T00:53:50.310Z,7.63
2018-07-23T00:56:20.020Z,8.63
2018-07-23T00:58:49.857Z,8.70
2018-07-23T01:01:20.001Z,8.50
2018-07-23T01:03:49.760Z,8.50
2018-07-23T01:06:19.396Z,6.43
2018-07-23T01:08:49.363Z,7.90
2018-07-23T01:11:19.133Z,8.20
2018-07-23T01:13:48.913Z,8.60
2018-07-23T01:16:18.691Z,8.27
2018-07-23T01:18:48.569Z,9.00
2018-07-23T01:21:18.136Z,9.70
2018-07-23T01:23:47.851Z,8.80
2018-07-23T01:26:17.627Z,10.80
2018-07-23T01:28:47.452Z,9.33
2018-07-23T01:31:17.475Z,9.37
2018-07-23T01:33:47.265Z,10.03
2018-07-23T01:36:17.101Z,9.60
2018-07-23T01:38:47.137Z,9.20
2018-07-23T01:41:16.958Z,8.73
2018-07-23T01:43:46.814Z,9.23
2018-07-23T01:46:16.590Z,8.43
2018-07-23T01:48:46.398Z,9.53
2018-07-23T01:51:16.101Z,8.83
2018-07-23T01:53:45.869Z,9.00
2018-07-23T01:56:15.808Z,9.30
2018-07-23T01:58:45.525Z,10.27
2018-07-23T02:01:15.324Z,8.77
2018-07-23T02:03:44.978Z,9.10
2018-07-23T02:06:14.650Z,8.23
2018-07-23T02:08:44.429Z,8.83
2018-07-23T02:11:14.362Z,8.57
2018-07-23T02:13:43.981Z,8.57
2018-07-23T02:16:13.754Z,8.27
2018-07-23T02:18:43.486Z,8.60
2018-07-23T02:21:13.159Z,8.80
2018-07-23T02:23:43.025Z,9.30
2018-07-23T02:26:12.909Z,7.50
2018-07-23T02:28:42.665Z,8.10
2018-07-23T02:31:12.573Z,8.20
2018-07-23T02:33:42.370Z,7.87
2018-07-23T02:36:12.861Z,8.40
2018-07-23T02:38:42.579Z,8.67
2018-07-23T02:41:12.319Z,8.07
2018-07-23T02:43:41.873Z,8.57
2018-07-23T02:46:11.587Z,8.17
2018-07-23T02:48:41.358Z,8.90
2018-07-23T02:51:11.075Z,8.20
2018-07-23T02:53:40.930Z,6.80
2018-07-23T02:56:10.704Z,8.30
2018-07-23T02:58:40.545Z,8.53
2018-07-23T03:01:10.469Z,7.90
2018-07-23T03:03:40.267Z,6.40
2018-07-23T03:06:10.064Z,7.40
2018-07-23T03:08:40.000Z,6.47
2018-07-23T03:11:09.865Z,8.27
2018-07-23T03:13:40.364Z,6.63
2018-07-23T03:16:10.019Z,7.20
2018-07-23T03:18:39.820Z,7.93
2018-07-23T03:21:09.504Z,7.10
2018-07-23T03:23:39.284Z,6.63
2018-07-23T03:26:09.155Z,7.50
2018-07-23T03:28:38.901Z,7.37
2018-07-23T03:31:08.599Z,6.90
2018-07-23T03:33:38.266Z,7.90
2018-07-23T03:36:08.065Z,7.80
2018-07-23T03:38:37.764Z,8.30
2018-07-23T03:41:07.550Z,8.37
2018-07-23T03:43:37.132Z,6.97
2018-07-23T03:46:06.840Z,7.13
2018-07-23T03:48:36.438Z,7.03
2018-07-23T03:51:06.046Z,8.17
2018-07-23T03:53:35.634Z,8.30
2018-07-23T03:56:05.453Z,7.40
2018-07-23T03:58:35.017Z,6.20
2018-07-23T04:01:04.589Z,8.50
2018-07-23T04:03:34.277Z,7.97
2018-07-23T04:06:04.000Z,8.00
2018-07-23T04:08:33.608Z,7.63
2018-07-23T04:11:03.330Z,7.50
2018-07-23T04:13:33.099Z,9.10
2018-07-23T04:16:03.117Z,10.30
2018-07-23T04:18:32.781Z,12.00
2018-07-23T04:21:02.449Z,10.53
2018-07-23T04:23:32.152Z,11.10
2018-07-23T04:26:01.810Z,11.77
2018-07-23T04:28:31.476Z,11.43
2018-07-23T04:31:01.119Z,11.40
2018-07-23T04:33:30.809Z,11.43
2018-07-23T04:36:00.505Z,9.97
2018-07-23T04:38:30.164Z,9.63
2018-07-23T04:40:59.833Z,10.50
2018-07-23T04:43:29.534Z,10.60
2018-07-23T04:45:59.263Z,10.93
2018-07-23T04:48:28.979Z,9.63
2018-07-23T04:50:58.756Z,9.30
2018-07-23T04:53:28.594Z,10.50
2018-07-23T04:55:58.344Z,9.00
2018-07-23T04:58:28.213Z,9.47
2018-07-23T05:00:58.074Z,8.87
2018-07-23T05:03:27.817Z,8.60
2018-07-23T05:05:57.517Z,8.83
2018-07-23T05:08:27.287Z,9.37
2018-07-23T05:10:56.998Z,9.33
2018-07-23T05:13:26.740Z,8.83
2018-07-23T05:15:56.522Z,9.47
2018-07-23T05:18:26.619Z,10.10
2018-07-23T05:20:56.599Z,9.00
2018-07-23T05:23:26.325Z,10.27
2018-07-23T05:25:56.300Z,9.00
2018-07-23T05:28:25.925Z,11.50
2018-07-23T05:30:55.827Z,9.23
2018-07-23T05:33:25.648Z,9.77
2018-07-23T05:35:55.468Z,8.93
2018-07-23T05:38:25.412Z,9.23
2018-07-23T05:40:55.176Z,10.47
2018-07-23T05:43:25.068Z,9.50
2018-07-23T05:45:54.859Z,10.73
2018-07-23T05:48:25.104Z,8.80
2018-07-23T05:50:54.898Z,9.23
2018-07-23T05:53:24.692Z,10.13
2018-07-23T05:55:54.426Z,9.13
2018-07-23T05:58:24.267Z,8.70
2018-07-23T06:00:53.985Z,8.80
2018-07-23T06:03:23.975Z,8.57
2018-07-23T06:05:53.580Z,9.93
2018-07-23T06:08:23.474Z,9.20
2018-07-23T06:10:53.282Z,10.33
2018-07-23T06:13:23.124Z,8.80
2018-07-23T06:15:52.873Z,9.33
2018-07-23T06:18:22.746Z,8.73
2018-07-23T06:20:52.935Z,8.50
2018-07-23T06:23:22.667Z,8.50
2018-07-23T06:25:52.525Z,8.77
2018-07-23T06:28:22.396Z,7.47
2018-07-23T06:30:52.198Z,8.70
2018-07-23T06:33:22.272Z,8.57
2018-07-23T06:35:52.706Z,7.40
2018-07-23T06:38:22.508Z,7.60
2018-07-23T06:40:53.085Z,8.43
2018-07-23T06:43:24.748Z,7.30
2018-07-23T06:45:54.685Z,8.00
2018-07-23T06:48:24.490Z,7.53
2018-07-23T06:50:54.874Z,8.10
2018-07-23T06:53:24.644Z,6.93
2018-07-23T06:55:54.313Z,7.33
2018-07-23T06:58:24.643Z,7.50
2018-07-23T07:00:54.806Z,7.17
2018-07-23T07:03:24.853Z,8.07
2018-07-23T07:05:54.955Z,7.60
2018-07-23T07:08:24.848Z,7.80
2018-07-23T07:10:56.677Z,6.67
2018-07-23T07:13:26.666Z,7.20
2018-07-23T07:15:56.536Z,6.70
2018-07-23T07:18:26.295Z,6.47
2018-07-23T07:20:56.637Z,7.27
2018-07-23T07:23:26.933Z,7.47
2018-07-23T07:25:56.782Z,7.57
2018-07-23T07:28:26.579Z,8.53
2018-07-23T07:30:57.752Z,6.87
2018-07-23T07:33:27.550Z,7.60
2018-07-23T07:35:57.359Z,6.97
2018-07-23T07:38:26.930Z,6.80
2018-07-23T07:40:56.732Z,7.70
2018-07-23T07:43:27.261Z,9.13
2018-07-23T07:45:57.093Z,6.57
2018-07-23T07:48:26.764Z,6.60
2018-07-23T07:50:56.405Z,7.13
2018-07-23T07:53:26.292Z,6.90
2018-07-23T07:55:56.279Z,6.80
2018-07-23T07:58:25.915Z,8.00
2018-07-23T08:00:55.776Z,7.20
2018-07-23T08:03:25.616Z,6.80
2018-07-23T08:05:55.326Z,6.40
2018-07-23T08:08:25.024Z,5.97
2018-07-23T08:10:54.917Z,5.97
2018-07-23T08:13:24.685Z,7.00
2018-07-23T08:22:07.433Z,5.80
2018-07-23T08:24:37.476Z,6.97
2018-07-23T08:27:07.426Z,5.73
2018-07-23T08:29:37.287Z,5.60
2018-07-23T08:32:07.115Z,6.23
2018-07-23T08:34:36.834Z,6.30
2018-07-23T08:37:07.615Z,6.00
2018-07-23T08:39:38.164Z,6.47
2018-07-23T08:42:08.820Z,7.07
2018-07-23T08:44:38.719Z,6.30
2018-07-23T08:47:09.194Z,6.17
2018-07-23T08:49:40.123Z,5.37
2018-07-23T08:52:13.093Z,5.43
2018-07-23T08:54:43.077Z,6.10
2018-07-23T08:57:13.772Z,5.60
2018-07-23T08:59:44.460Z,4.83
2018-07-23T09:02:19.542Z,5.77
2018-07-23T09:04:50.904Z,5.67
2018-07-23T09:07:22.034Z,5.57
2018-07-23T09:09:52.401Z,5.27
2018-07-23T09:12:23.407Z,5.40
2018-07-23T09:14:53.881Z,4.40
2018-07-23T09:17:24.549Z,4.20
2018-07-23T09:19:55.444Z,5.10
2018-07-23T09:22:27.473Z,4.70
2018-07-23T09:24:58.160Z,5.30
2018-07-23T09:27:30.426Z,4.33
2018-07-23T09:30:01.001Z,3.90
2018-07-23T09:32:31.845Z,4.40
2018-07-23T09:35:03.200Z,4.40
2018-07-23T09:37:33.629Z,4.97
2018-07-23T09:40:04.236Z,4.03
2018-07-23T09:42:35.082Z,3.50
2018-07-23T09:45:05.821Z,5.27
2018-07-23T09:47:36.187Z,4.37
2018-07-23T09:50:06.709Z,3.80
2018-07-23T09:52:41.356Z,4.10
2018-07-23T09:55:11.528Z,3.10
2018-07-23T09:57:41.978Z,3.70
2018-07-23T10:00:13.418Z,3.80
2018-07-23T10:02:44.422Z,3.60
2018-07-23T10:05:14.875Z,4.10
2018-07-23T10:07:45.576Z,4.17
2018-07-23T10:10:16.016Z,3.63
2018-07-23T10:12:47.139Z,6.53
2018-07-23T10:15:17.872Z,4.27
2018-07-23T10:17:48.171Z,4.00
2018-07-23T10:20:18.997Z,3.83
2018-07-23T10:22:49.757Z,3.83
2018-07-23T10:25:21.673Z,5.10
2018-07-23T10:27:52.037Z,3.30
2018-07-23T10:30:23.248Z,3.67
2018-07-23T10:32:55.193Z,3.70
2018-07-23T10:35:25.718Z,4.67
2018-07-23T10:37:55.922Z,3.93
2018-07-23T10:40:26.551Z,3.83
2018-07-23T10:42:57.445Z,3.70
2018-07-23T10:45:28.489Z,3.90
2018-07-23T10:48:01.980Z,3.93
2018-07-23T10:50:35.253Z,3.90
2018-07-23T10:53:06.762Z,3.70
2018-07-23T10:55:37.321Z,4.30
2018-07-23T10:58:07.596Z,4.00
2018-07-23T11:00:38.166Z,3.43
2018-07-23T11:03:08.092Z,3.80
2018-07-23T11:05:38.707Z,3.70
2018-07-23T11:08:09.369Z,3.97
2018-07-23T11:10:40.103Z,4.30
2018-07-23T11:13:10.917Z,4.60
2018-07-23T11:15:41.446Z,3.57
2018-07-23T11:18:12.072Z,3.23
2018-07-23T11:20:42.564Z,4.30
2018-07-23T11:23:13.928Z,4.03
2018-07-23T11:25:44.202Z,5.23
2018-07-23T11:28:14.916Z,5.93
2018-07-23T11:30:45.846Z,6.17
2018-07-23T11:33:17.190Z,4.10
2018-07-23T11:35:47.617Z,4.70
2018-07-23T11:38:17.896Z,4.80
2018-07-23T11:40:48.093Z,4.27
2018-07-23T11:43:19.573Z,4.57
2018-07-23T11:45:50.954Z,4.83
2018-07-23T11:48:21.408Z,4.90
2018-07-23T11:50:51.767Z,6.40
2018-07-23T11:53:22.996Z,5.80
2018-07-23T11:55:53.584Z,5.23
2018-07-23T11:58:23.932Z,3.63
2018-07-23T12:00:54.235Z,4.67
2018-07-23T12:03:25.925Z,5.87
2018-07-23T12:05:56.687Z,4.97
2018-07-23T12:08:27.471Z,4.50
2018-07-23T12:10:57.594Z,5.00
2018-07-23T12:13:28.633Z,3.97
2018-07-23T12:15:58.516Z,4.60
2018-07-23T12:18:28.278Z,4.13
2018-07-23T12:20:58.596Z,4.17
2018-07-23T12:23:28.840Z,5.00
2018-07-23T12:26:02.699Z,4.33
2018-07-23T12:28:32.515Z,4.40
2018-07-23T12:31:08.552Z,4.10
2018-07-23T12:33:40.542Z,4.90
2018-07-23T12:36:14.332Z,3.97
2018-07-23T12:38:44.123Z,4.17
2018-07-23T12:41:14.235Z,4.70
2018-07-23T12:43:44.699Z,5.13
2018-07-23T12:46:15.164Z,5.10
2018-07-23T12:48:44.953Z,5.00
2018-07-23T12:51:15.160Z,5.00
2018-07-23T12:53:46.203Z,4.90
2018-07-23T12:56:15.809Z,4.10
2018-07-23T12:58:45.362Z,4.60
2018-07-23T13:01:15.241Z,4.33
2018-07-23T13:03:47.732Z,4.77
2018-07-23T13:06:17.590Z,5.53
2018-07-23T13:08:47.402Z,3.47
2018-07-23T13:11:17.210Z,4.20
2018-07-23T13:13:47.821Z,4.70
2018-07-23T13:16:17.664Z,4.13
2018-07-23T13:18:47.980Z,4.53
2018-07-23T13:21:17.737Z,4.00
2018-07-23T13:23:48.025Z,3.30
2018-07-23T13:26:18.771Z,3.70
2018-07-23T13:28:48.466Z,3.40
2018-07-23T13:31:19.138Z,2.63
2018-07-23T13:33:50.183Z,2.40
2018-07-23T13:36:20.113Z,2.23
2018-07-23T13:38:49.999Z,2.90
2018-07-23T13:41:19.857Z,2.50
2018-07-23T13:43:57.095Z,3.23
2018-07-23T13:46:26.929Z,2.60
2018-07-23T13:48:56.824Z,1.53
2018-07-23T13:51:26.632Z,1.70
2018-07-23T13:53:58.347Z,1.97
2018-07-23T13:56:28.189Z,2.03
2018-07-23T13:58:58.186Z,3.20
2018-07-23T14:01:27.958Z,2.20
2018-07-23T14:03:58.617Z,2.27
2018-07-23T14:06:28.783Z,2.63
2018-07-23T14:08:58.588Z,2.23
2018-07-23T14:11:29.715Z,2.97
2018-07-23T14:14:00.859Z,1.60
2018-07-23T14:16:31.102Z,1.27
2018-07-23T14:19:00.901Z,1.57
2018-07-23T14:21:33.545Z,1.07
2018-07-23T14:24:04.623Z,1.70
2018-07-23T14:26:35.433Z,1.20
2018-07-23T14:29:05.070Z,1.30
2018-07-23T14:31:35.643Z,1.10
2018-07-23T14:34:10.088Z,1.43
2018-07-23T14:36:41.309Z,2.30
2018-07-23T14:39:13.654Z,2.20
2018-07-23T14:41:43.591Z,2.00
2018-07-23T14:44:15.799Z,1.23
2018-07-23T14:46:46.005Z,3.40
2018-07-23T14:49:17.547Z,2.10
2018-07-23T14:51:48.207Z,1.00
2018-07-23T14:54:18.815Z,0.90
2018-07-23T14:56:48.647Z,1.33
2018-07-23T14:59:18.628Z,2.37
2018-07-23T15:01:48.866Z,1.73
2018-07-23T15:04:20.625Z,1.40
2018-07-23T15:06:50.520Z,1.40
2018-07-23T15:09:20.278Z,3.00
2018-07-23T15:11:50.116Z,1.00
2018-07-23T15:14:19.988Z,0.97
2018-07-23T15:16:49.665Z,2.00
2018-07-23T15:19:19.454Z,1.63
2018-07-23T15:21:49.417Z,1.83
2018-07-23T15:24:19.132Z,2.40
2018-07-23T15:26:48.779Z,1.80
2018-07-23T15:29:18.553Z,2.40
2018-07-23T15:31:48.846Z,2.60
2018-07-23T15:34:19.540Z,2.40
2018-07-23T15:36:49.733Z,3.47
2018-07-23T15:39:19.520Z,2.00
2018-07-23T15:41:49.370Z,2.40
2018-07-23T15:44:19.684Z,2.70
2018-07-23T15:46:49.245Z,3.00
2018-07-23T15:49:21.057Z,2.33
2018-07-23T15:51:52.110Z,2.17
2018-07-23T15:54:23.151Z,2.87
2018-07-23T15:56:52.907Z,3.40
2018-07-23T15:59:22.677Z,2.43
2018-07-23T16:01:52.486Z,2.30
2018-07-23T16:04:23.261Z,1.80
2018-07-23T16:06:53.077Z,2.27
2018-07-23T16:09:22.865Z,3.20
2018-07-23T16:11:52.855Z,2.90
2018-07-23T16:14:26.944Z,3.60
2018-07-23T16:16:56.847Z,2.30
2018-07-23T16:19:27.028Z,2.90
2018-07-23T16:21:56.823Z,3.07
2018-07-23T16:24:28.210Z,2.47
2018-07-23T16:26:58.070Z,2.20
2018-07-23T16:29:27.904Z,3.13
2018-07-23T16:31:58.214Z,2.83
2018-07-23T16:34:27.986Z,2.53
2018-07-23T16:36:57.863Z,2.30
2018-07-23T16:39:27.780Z,2.60
2018-07-23T16:41:57.540Z,1.73
2018-07-23T16:44:27.258Z,2.47
2018-07-23T16:46:57.132Z,2.40
2018-07-23T16:49:26.945Z,2.00
2018-07-23T16:51:56.768Z,2.90
2018-07-23T16:54:26.643Z,2.30
2018-07-23T16:56:56.562Z,2.40
2018-07-23T16:59:26.320Z,2.37
2018-07-23T17:01:56.655Z,2.03
2018-07-23T17:04:26.508Z,2.63
2018-07-23T17:06:56.405Z,2.17
2018-07-23T17:09:26.131Z,2.20
2018-07-23T17:11:55.940Z,2.10
2018-07-23T17:14:25.827Z,2.33
2018-07-23T17:16:56.546Z,2.90
2018-07-23T17:19:26.216Z,3.47
2018-07-23T17:21:56.137Z,3.80
2018-07-23T17:24:25.909Z,3.13
2018-07-23T17:26:55.826Z,3.30
2018-07-23T17:29:25.496Z,3.83
2018-07-23T17:31:55.385Z,2.97
2018-07-23T17:34:25.555Z,3.47
2018-07-23T17:36:55.455Z,3.40
2018-07-23T17:39:25.317Z,3.00
2018-07-23T17:41:56.265Z,3.70
2018-07-23T17:44:26.308Z,2.87
2018-07-23T17:46:55.996Z,2.87
2018-07-23T17:49:27.136Z,3.10
2018-07-23T17:51:57.089Z,3.63
2018-07-23T17:54:26.926Z,3.50
2018-07-23T17:56:57.022Z,3.33
2018-07-23T17:59:26.935Z,2.80
2018-07-23T18:01:57.319Z,2.80
2018-07-23T18:04:27.255Z,3.20
2018-07-23T18:06:57.143Z,3.13
2018-07-23T18:09:27.168Z,3.17
2018-07-23T18:11:57.191Z,3.70
2018-07-23T18:14:27.082Z,3.60
2018-07-23T18:16:56.949Z,2.73
2018-07-23T18:19:27.638Z,4.00
2018-07-23T18:21:57.593Z,3.10
2018-07-23T18:24:27.590Z,3.60
2018-07-23T18:26:57.465Z,3.30
2018-07-23T18:29:27.274Z,3.90
2018-07-23T18:31:59.939Z,3.20
2018-07-23T18:34:30.345Z,4.20
2018-07-23T18:37:00.126Z,3.90
2018-07-23T18:39:30.154Z,3.90
2018-07-23T18:41:59.831Z,3.40
2018-07-23T18:44:29.666Z,3.30
2018-07-23T18:46:59.384Z,4.03
2018-07-23T18:50:01.373Z,4.10
2018-07-23T18:52:32.040Z,3.87
2018-07-23T18:55:02.565Z,3.70
2018-07-23T18:57:32.485Z,3.90
2018-07-23T19:00:02.306Z,4.07
2018-07-23T19:02:33.465Z,4.20
2018-07-23T19:05:03.350Z,4.40
2018-07-23T19:07:33.212Z,3.80
2018-07-23T19:10:03.100Z,3.80
2018-07-23T19:12:33.754Z,4.60
2018-07-23T19:15:04.055Z,3.80
2018-07-23T19:17:33.802Z,3.13
2018-07-23T19:20:03.865Z,3.07
2018-07-23T19:22:34.721Z,3.57
2018-07-23T19:25:04.727Z,3.10
2018-07-23T19:27:34.386Z,3.60
2018-07-23T19:30:04.380Z,3.40
2018-07-23T19:32:34.596Z,3.30
2018-07-23T19:35:05.019Z,2.80
2018-07-23T19:37:34.776Z,3.70
2018-07-23T19:40:05.692Z,3.30
2018-07-23T19:42:36.322Z,3.60
2018-07-23T19:45:06.603Z,4.20
2018-07-23T19:47:36.447Z,3.50
2018-07-23T19:50:06.938Z,2.87
2018-07-23T19:52:37.461Z,3.47
2018-07-23T19:55:07.683Z,3.77
2018-07-23T19:57:37.923Z,3.47
2018-07-23T20:00:07.845Z,3.60
2018-07-23T20:02:38.191Z,3.40
2018-07-23T20:05:07.872Z,4.00
2018-07-23T20:07:37.664Z,2.90
2018-07-23T20:10:07.402Z,2.50
2018-07-23T20:12:37.072Z,3.00
2018-07-23T20:15:06.976Z,3.03
2018-07-23T20:17:36.777Z,4.00
2018-07-23T20:20:08.817Z,2.67
2018-07-23T20:22:40.263Z,3.97
2018-07-23T20:25:11.877Z,3.90
2018-07-23T20:27:41.679Z,3.13
2018-07-23T20:30:11.569Z,3.93
2018-07-23T20:32:43.997Z,2.80
2018-07-23T20:35:13.950Z,3.13
2018-07-23T20:37:43.874Z,3.07
2018-07-23T20:40:14.246Z,3.57
2018-07-23T20:42:44.957Z,3.10
2018-07-23T20:45:15.208Z,2.70
2018-07-23T20:47:45.228Z,2.73
2018-07-23T20:50:14.994Z,3.30
2018-07-23T20:52:45.070Z,2.73
2018-07-23T20:55:15.098Z,3.07
2018-07-23T20:57:44.945Z,2.77
2018-07-23T21:00:14.708Z,3.40
2018-07-23T21:02:44.516Z,3.20
2018-07-23T21:05:14.362Z,2.73
2018-07-23T21:07:44.252Z,3.10
2018-07-23T21:10:14.074Z,2.90
2018-07-23T21:12:43.982Z,3.03
2018-07-23T21:15:13.868Z,3.70
2018-07-23T21:17:43.584Z,3.57
2018-07-23T21:20:13.206Z,3.27
2018-07-23T21:22:43.028Z,2.90
2018-07-23T21:25:14.069Z,3.33
2018-07-23T21:27:43.849Z,4.03
2018-07-23T21:30:13.827Z,3.70
2018-07-23T21:32:44.061Z,3.20
2018-07-23T21:35:13.902Z,2.77
2018-07-23T21:37:43.932Z,2.90
2018-07-23T21:40:13.693Z,2.90
2018-07-23T21:42:43.496Z,2.90
2018-07-23T21:45:14.371Z,3.07
2018-07-23T21:47:44.165Z,2.80
2018-07-23T21:50:14.042Z,3.17
2018-07-23T21:52:44.974Z,3.47
2018-07-23T21:55:14.798Z,3.10
2018-07-23T21:57:44.554Z,3.00
2018-07-23T22:00:16.162Z,3.30
2018-07-23T22:02:47.164Z,3.20
2018-07-23T22:05:16.985Z,2.70
2018-07-23T22:07:46.633Z,3.20
2018-07-23T22:10:16.801Z,2.83
2018-07-23T22:12:46.918Z,2.77
2018-07-23T22:15:16.655Z,3.37
2018-07-23T22:17:46.382Z,3.00
2018-07-23T22:20:16.241Z,2.97
2018-07-23T22:22:45.968Z,2.63
2018-07-23T22:25:15.938Z,2.90
2018-07-23T22:27:45.757Z,3.53
2018-07-23T22:30:15.568Z,3.03
2018-07-23T22:32:45.260Z,2.80
2018-07-23T22:35:15.086Z,2.60
2018-07-23T22:37:44.884Z,2.67
2018-07-23T22:40:14.643Z,3.10
2018-07-23T22:42:44.859Z,3.43
2018-07-23T22:45:14.664Z,2.90
2018-07-23T22:47:44.521Z,3.17
2018-07-23T22:50:14.317Z,3.50
2018-07-23T22:52:44.694Z,3.47
2018-07-23T22:55:14.583Z,2.80
2018-07-23T22:57:45.338Z,3.43
2018-07-23T23:00:15.221Z,3.47
2018-07-23T23:02:45.472Z,3.30
2018-07-23T23:05:15.366Z,3.90
2018-07-23T23:07:45.205Z,3.53
2018-07-23T23:10:16.014Z,3.43
2018-07-23T23:12:46.650Z,3.63
2018-07-23T23:15:16.517Z,3.07
2018-07-23T23:17:46.410Z,3.20
2018-07-23T23:20:16.245Z,2.90
2018-07-23T23:22:46.963Z,2.93
2018-07-23T23:25:16.709Z,2.97
2018-07-23T23:27:46.500Z,3.67
2018-07-23T23:30:16.233Z,2.77
2018-07-23T23:32:45.999Z,3.50
2018-07-23T23:35:15.800Z,2.90
2018-07-23T23:37:45.602Z,3.07
2018-07-23T23:40:15.585Z,3.70
2018-07-23T23:42:45.517Z,3.50
2018-07-23T23:45:15.192Z,3.90
2018-07-23T23:47:44.912Z,3.17
2018-07-23T23:50:14.579Z,2.90
2018-07-23T23:52:44.310Z,3.23
2018-07-23T23:55:14.145Z,2.80
2018-07-23T23:57:43.979Z,4.00
